Smith River, CA (95567)

6:24 PM PST on January 24, 2017 (GMT -0800)
Smith River | | Change Station

Elev 184 ft 41.94 °N, 124.17 °W | Updated 11 minutes ago

Clear
Clear
43.1 °F
Feels Like 43 °F
N
3.0
Wind Variable Wind from North
Gusts 4.0 mph

Today
High -- | Low -- °F
--% Chance of Precip.
Yesterday
High -- | Low -- °F
Precip. -- in
Pressure 30.23 in
Visibility 10.0 miles
Clouds Clear
Windchill 43 °F
Dew Point 40 °F
Humidity 89%
Rainfall 0.00 in
Snow Depth Not available.
7:36 AM 5:21 PM
Waning Crescent, 8% visible
METAR KBOK 250156Z AUTO 09003KT 10SM CLR 06/03 A3018 RMK AO2 SLP235 T00610033
Pressure 30.23 in
Visibility 10.0 miles
Clouds Clear
Windchill 43 °F
Dew Point 40 °F
Humidity 89%
Rainfall 0.00 in
Snow Depth Not available.
7:36 AM 5:21 PM
Waning Crescent, 8% visible
METAR KBOK 250156Z AUTO 09003KT 10SM CLR 06/03 A3018 RMK AO2 SLP235 T00610033

Get Your Daily Forecast Email!

Thanks for signing up!

Be on the lookout for a verification email in your inbox.

You'll start receiving the daily forecast at 8 AM.

×

10-Day Weather Forecast

Almanac

Astronomy

Jan. 24, 2017 Rise Set
Actual Time
Civil Twilight
Nautical Twilight
Astronomical Twilight
Moon
Length of Visible Light
Length of Day
Tomorrow will be .
, % of the Moon is Illuminated

Today's Extremes

State Highs State Lows

Community

WunderPhotos

Upload Photos

1,962,540 photos uploaded!

WunderBlog® & News

Nearby

Air Quality

  Air Quality AQ Index Pollutant
Not available.

Snow Depth

Station Depth Elevation

Earthquake Activity

City Distance Mag. Time & Date
Minimum magnitude displayed is 2.5.

Coastal Water Temperatures

Place Temperature

Stations

Nearby Weather Stations

Station Location Temp. Windchill Dew Point Humidity Wind Precip. Elev Updated Type
                   

Watches & Warnings

Small Craft for Hazardous Seas Advisory
Issued: 2:04 PM PST Jan. 24, 2017 – National Weather Service

... Small Craft Advisory for hazardous seas in effect from 4 PM
Wednesday to 4 PM PST Friday...

The National Weather Service in Medford has issued a Small Craft
Advisory for hazardous seas... which is in effect from 4 PM
Wednesday to 4 PM PST Friday.

* Seas... west 14 to 16 feet at 19 seconds Wednesday
afternoon... decreasing to 10 to 13 feet at 16 seconds late
Thursday into Friday.

* Areas affected... all areas will be impacted by steep seas.

* View the hazard area in detail at
http://weather.Gov/Medford/hazard

Precautionary/preparedness actions...

A Small Craft Advisory for hazardous seas means that waves will
be steep enough to create a potential hazard to smaller vessels
and inexperienced mariners.